Time;durP1;ratioP1;P1;durP2;ratioP2;P2;SDS_P1;SDS_P2;PMS_P1;PMS_P2;Temp;Humidity;BMP_temperature;BMP_pressure;BME280_temperature;BME280_humidity;BME280_pressure;Samples;Min_cycle;Max_cycle;Signal;HPM_P1;HPM_P2
2022/12/20 00:06:34;;;;;;;17.23;13.07;;;6.70;90.00;;;;;;5340756;22;20233;-94
2022/12/20 00:09:02;;;;;;;13.33;11.47;;;6.60;90.10;;;;;;5038893;28;20196;-94
2022/12/20 00:11:28;;;;;;;14.30;10.63;;;6.70;90.20;;;;;;5038780;28;20478;-95
2022/12/20 00:13:55;;;;;;;15.17;12.97;;;6.70;89.80;;;;;;5039800;28;20170;-94
2022/12/20 00:16:23;;;;;;;13.40;12.00;;;6.60;89.80;;;;;;5276433;22;20229;-95
2022/12/20 00:18:57;;;;;;;14.03;12.47;;;6.70;90.00;;;;;;5039772;28;20201;-94
2022/12/20 00:21:23;;;;;;;15.90;12.50;;;6.70;89.90;;;;;;5039922;28;20239;-94
2022/12/20 00:23:50;;;;;;;14.90;11.90;;;6.70;90.10;;;;;;5037912;28;20215;-92
2022/12/20 00:26:19;;;;;;;13.43;12.00;;;6.80;89.90;;;;;;5020447;28;20193;-93
2022/12/20 00:28:48;;;;;;;13.87;12.43;;;6.70;89.80;;;;;;5030180;28;20205;-93
2022/12/20 00:31:15;;;;;;;18.90;12.27;;;6.80;89.70;;;;;;5026638;28;20177;-93
2022/12/20 00:33:44;;;;;;;19.37;12.50;;;6.70;90.00;;;;;;5024228;28;20188;-93
2022/12/20 00:36:10;;;;;;;13.10;11.17;;;6.80;89.70;;;;;;5025626;28;20196;-93
2022/12/20 00:38:36;;;;;;;15.67;12.20;;;6.80;89.80;;;;;;5031136;28;20201;-93
2022/12/20 00:41:20;;;;;;;15.27;12.70;;;6.80;89.90;;;;;;5028049;28;20173;-93
2022/12/20 00:43:46;;;;;;;13.67;12.33;;;6.80;89.90;;;;;;5027481;28;20193;-93
2022/12/20 00:46:13;;;;;;;13.17;11.47;;;6.80;89.90;;;;;;5024572;28;20182;-94
2022/12/20 00:48:39;;;;;;;14.10;10.20;;;6.80;89.90;;;;;;5027088;28;20213;-94
2022/12/20 00:51:12;;;;;;;14.30;11.50;;;6.80;89.90;;;;;;5027180;28;20196;-93
2022/12/20 00:53:38;;;;;;;16.63;12.30;;;6.80;90.10;;;;;;5127202;22;20217;-95
2022/12/20 00:56:05;;;;;;;13.70;10.77;;;6.80;90.00;;;;;;5038830;28;20211;-95
2022/12/20 00:58:35;;;;;;;16.07;12.40;;;6.80;89.90;;;;;;5038732;28;20181;-93
2022/12/20 01:01:02;;;;;;;17.23;11.80;;;6.80;90.00;;;;;;5032585;28;20197;-93
2022/12/20 01:03:28;;;;;;;18.60;12.57;;;6.80;90.10;;;;;;5029571;28;20248;-93
2022/12/20 01:05:56;;;;;;;15.23;12.07;;;6.80;90.00;;;;;;5034899;28;20192;-94
2022/12/20 01:08:23;;;;;;;12.27;10.60;;;6.80;89.90;;;;;;5031428;28;20204;-92
2022/12/20 01:11:06;;;;;;;16.87;11.63;;;6.80;90.00;;;;;;5036023;28;20169;-92
2022/12/20 01:13:34;;;;;;;12.90;11.37;;;6.90;89.80;;;;;;5098837;22;20236;-94
2022/12/20 01:16:28;;;;;;;21.47;14.67;;;6.80;90.00;;;;;;5035576;28;20212;-93
2022/12/20 01:18:54;;;;;;;8.53;7.67;;;6.90;90.10;;;;;;5087729;22;20237;-93
2022/12/20 01:21:25;;;;;;;13.10;11.20;;;6.90;90.00;;;;;;5028592;28;20257;-95
2022/12/20 01:23:52;;;;;;;12.47;10.83;;;6.90;90.00;;;;;;5032790;28;20200;-94
2022/12/20 01:26:21;;;;;;;13.50;11.07;;;6.90;90.10;;;;;;5030593;28;20157;-93
2022/12/20 01:28:47;;;;;;;12.77;11.23;;;6.90;90.20;;;;;;5032984;28;20189;-94
2022/12/20 01:31:15;;;;;;;15.20;11.33;;;6.90;90.10;;;;;;5029020;28;20703;-94
2022/12/20 01:33:42;;;;;;;12.27;10.13;;;6.90;90.30;;;;;;5034653;28;20200;-93
2022/12/20 01:36:11;;;;;;;13.60;11.00;;;6.90;90.30;;;;;;5032426;28;20173;-94
2022/12/20 01:38:36;;;;;;;15.67;12.33;;;6.90;90.30;;;;;;5032191;28;20261;-94
2022/12/20 01:41:03;;;;;;;12.83;10.80;;;7.00;90.10;;;;;;5032852;28;20164;-94
2022/12/20 01:43:51;;;;;;;13.80;10.67;;;7.00;90.10;;;;;;5034419;28;20216;-94
2022/12/20 01:46:20;;;;;;;18.37;12.20;;;7.10;90.10;;;;;;5032799;28;20169;-94
2022/12/20 01:48:54;;;;;;;15.43;11.67;;;7.10;90.20;;;;;;5030617;28;20227;-94
2022/12/20 01:51:22;;;;;;;13.50;9.80;;;7.20;90.10;;;;;;5032476;28;20183;-94
2022/12/20 01:53:55;;;;;;;14.57;11.47;;;7.20;90.10;;;;;;5034996;28;20157;-95
2022/12/20 01:56:20;;;;;;;14.23;10.20;;;7.20;90.00;;;;;;5032801;28;20161;-94
2022/12/20 01:58:50;;;;;;;14.50;10.00;;;7.30;90.10;;;;;;5034022;28;20207;-94
2022/12/20 02:01:16;;;;;;;10.63;9.63;;;7.30;89.80;;;;;;5033605;28;20172;-94
2022/12/20 02:03:42;;;;;;;13.07;10.03;;;7.30;89.90;;;;;;5032894;28;20217;-94
2022/12/20 02:06:20;;;;;;;12.57;11.20;;;7.40;89.90;;;;;;5035106;28;20211;-94
2022/12/20 02:08:49;;;;;;;15.10;10.70;;;7.50;89.80;;;;;;5036132;28;20185;-94
2022/12/20 02:11:30;;;;;;;10.67;8.70;;;7.50;89.80;;;;;;5034516;28;20174;-94
2022/12/20 02:14:30;;;;;;;10.80;9.67;;;7.50;89.70;;;;;;5035680;28;20197;-94
2022/12/20 02:16:58;;;;;;;11.67;10.47;;;7.50;89.90;;;;;;5035074;28;20154;-94
2022/12/20 02:19:41;;;;;;;12.23;10.13;;;7.50;89.90;;;;;;5033921;28;20515;-94
2022/12/20 02:22:09;;;;;;;15.40;11.10;;;7.50;89.80;;;;;;5032109;28;20153;-94
2022/12/20 02:25:13;;;;;;;10.17;9.17;;;7.50;89.90;;;;;;5034209;28;20197;-94
2022/12/20 02:27:59;;;;;;;16.23;10.87;;;7.60;89.80;;;;;;5034644;28;20290;-94
2022/12/20 02:30:31;;;;;;;15.30;11.10;;;7.60;89.80;;;;;;5035155;28;20165;-94
2022/12/20 02:33:03;;;;;;;11.23;10.13;;;7.70;89.80;;;;;;5036724;28;20245;-95
2022/12/20 02:35:33;;;;;;;14.13;10.67;;;7.70;89.70;;;;;;5035771;28;20173;-94
2022/12/20 02:38:02;;;;;;;13.50;11.00;;;7.60;89.90;;;;;;5036338;28;20220;-95
2022/12/20 02:40:33;;;;;;;14.60;11.27;;;7.60;89.90;;;;;;5036945;28;20170;-94
2022/12/20 02:43:03;;;;;;;15.53;11.30;;;7.60;90.00;;;;;;5036430;28;20205;-94
2022/12/20 02:45:34;;;;;;;16.27;10.83;;;7.60;90.00;;;;;;5036806;28;20173;-95
2022/12/20 02:48:10;;;;;;;12.80;8.13;;;7.60;90.00;;;;;;5035996;28;20206;-94
2022/12/20 02:50:41;;;;;;;12.70;9.90;;;7.70;90.00;;;;;;5035097;28;20153;-95
2022/12/20 02:53:08;;;;;;;13.87;10.07;;;7.70;89.90;;;;;;5035807;28;20170;-95
2022/12/20 02:56:07;;;;;;;14.43;10.30;;;7.70;90.10;;;;;;5036255;28;20288;-94
2022/12/20 02:58:46;;;;;;;11.47;10.30;;;7.70;90.00;;;;;;5036965;28;20201;-95
2022/12/20 03:01:21;;;;;;;13.00;10.20;;;7.70;90.00;;;;;;5037119;28;20176;-94
2022/12/20 03:03:48;;;;;;;11.10;10.00;;;7.70;90.20;;;;;;5037526;28;20200;-95
2022/12/20 03:06:14;;;;;;;10.47;9.43;;;7.60;90.30;;;;;;5036897;28;20161;-95
2022/12/20 03:08:40;;;;;;;11.60;9.77;;;7.70;90.30;;;;;;5034058;28;20193;-94
2022/12/20 03:11:05;;;;;;;12.77;10.50;;;7.70;90.10;;;;;;5037142;28;20172;-95
2022/12/20 03:13:31;;;;;;;12.57;10.73;;;7.70;90.40;;;;;;5037915;28;20196;-94
2022/12/20 03:15:56;;;;;;;13.90;10.90;;;7.60;90.40;;;;;;5040674;28;20168;-95
2022/12/20 03:18:22;;;;;;;14.27;10.93;;;7.60;90.40;;;;;;5039264;28;20205;-94
2022/12/20 03:20:48;;;;;;;11.37;10.20;;;7.60;90.50;;;;;;5039146;28;20174;-96
2022/12/20 03:23:16;;;;;;;12.60;10.80;;;7.70;90.60;;;;;;5040116;28;20241;-94
2022/12/20 03:25:42;;;;;;;14.30;11.00;;;7.70;90.40;;;;;;5040104;28;20160;-94
2022/12/20 03:28:07;;;;;;;11.90;9.17;;;7.70;90.50;;;;;;5039770;28;20205;-94
2022/12/20 03:30:33;;;;;;;15.93;10.57;;;7.70;90.50;;;;;;5038772;28;20170;-94
2022/12/20 03:32:59;;;;;;;17.27;10.97;;;7.70;90.50;;;;;;5040325;28;20177;-94
2022/12/20 03:35:24;;;;;;;10.63;9.63;;;7.60;90.50;;;;;;5040510;28;20174;-95
2022/12/20 03:37:50;;;;;;;13.20;10.60;;;7.60;90.90;;;;;;5040299;28;20229;-94
2022/12/20 03:40:15;;;;;;;11.93;10.37;;;7.60;90.80;;;;;;5039928;28;20161;-94
2022/12/20 03:42:41;;;;;;;9.87;8.83;;;7.70;90.70;;;;;;5040600;28;20225;-94
2022/12/20 03:45:07;;;;;;;11.83;9.97;;;7.70;90.70;;;;;;5040016;28;20189;-94
2022/12/20 03:47:33;;;;;;;15.37;10.37;;;7.70;90.60;;;;;;5039954;28;20200;-96
2022/12/20 03:49:59;;;;;;;12.03;9.93;;;7.70;90.50;;;;;;5039412;28;20177;-94
2022/12/20 03:52:24;;;;;;;10.83;9.17;;;7.80;90.60;;;;;;5039033;28;20185;-94
2022/12/20 03:54:50;;;;;;;10.97;9.67;;;7.80;90.50;;;;;;5040361;28;20177;-94
2022/12/20 03:57:16;;;;;;;10.70;9.03;;;7.90;90.50;;;;;;5039908;28;20258;-94
2022/12/20 03:59:42;;;;;;;11.43;10.23;;;7.90;90.40;;;;;;5040085;28;20165;-96
2022/12/20 04:02:08;;;;;;;11.17;9.20;;;7.90;90.30;;;;;;5040008;28;20180;-95
2022/12/20 04:04:33;;;;;;;13.53;10.80;;;7.80;90.50;;;;;;5039797;28;20181;-94
2022/12/20 04:06:59;;;;;;;9.60;8.70;;;7.80;90.40;;;;;;5039537;28;20208;-94
2022/12/20 04:09:25;;;;;;;11.00;9.90;;;7.90;90.60;;;;;;5038253;28;20199;-93
2022/12/20 04:11:50;;;;;;;11.67;10.40;;;7.90;90.20;;;;;;5039817;28;20233;-95
2022/12/20 04:14:16;;;;;;;11.07;9.93;;;7.90;90.50;;;;;;5040268;28;20172;-96
2022/12/20 04:16:41;;;;;;;12.23;8.70;;;7.90;90.50;;;;;;5039656;28;20169;-94
2022/12/20 04:19:07;;;;;;;11.90;9.37;;;7.90;90.50;;;;;;5038479;28;20217;-94
2022/12/20 04:21:34;;;;;;;13.13;8.23;;;8.00;90.40;;;;;;5037446;28;20184;-94
2022/12/20 04:24:01;;;;;;;11.23;9.20;;;8.10;90.40;;;;;;5038162;28;20208;-94
2022/12/20 04:26:27;;;;;;;11.20;8.67;;;8.00;90.40;;;;;;5038266;28;20169;-94
2022/12/20 04:28:52;;;;;;;10.13;7.73;;;8.00;90.30;;;;;;5037726;28;20181;-94
2022/12/20 04:31:18;;;;;;;11.23;8.47;;;8.10;90.20;;;;;;5038373;28;20172;-94
2022/12/20 04:33:45;;;;;;;12.70;8.97;;;8.00;90.20;;;;;;5038737;28;20252;-95
2022/12/20 04:36:11;;;;;;;10.30;9.20;;;8.00;90.20;;;;;;5038879;28;20165;-94
2022/12/20 04:38:36;;;;;;;9.87;8.40;;;7.90;90.40;;;;;;5038820;28;20224;-95
2022/12/20 04:41:02;;;;;;;12.40;9.70;;;8.00;90.90;;;;;;5038365;28;20165;-94
2022/12/20 04:43:28;;;;;;;11.73;9.30;;;7.90;91.00;;;;;;5038302;28;20217;-94
2022/12/20 04:45:55;;;;;;;9.50;8.50;;;7.80;91.10;;;;;;5038499;28;20177;-94
2022/12/20 04:48:23;;;;;;;10.20;9.10;;;7.90;91.60;;;;;;5038394;28;20201;-94
2022/12/20 04:50:50;;;;;;;10.60;8.70;;;7.90;91.50;;;;;;5038271;28;20173;-96
2022/12/20 04:56:01;;;;;;;9.97;8.90;;;7.80;92.10;;;;;;5019040;28;20220;-93
2022/12/20 04:58:26;;;;;;;17.23;10.77;;;7.70;92.50;;;;;;5003455;28;20222;-93
2022/12/20 05:00:52;;;;;;;12.67;11.23;;;7.80;92.70;;;;;;4999543;28;20205;-94
2022/12/20 05:03:19;;;;;;;15.07;10.23;;;7.70;92.80;;;;;;5000119;28;20214;-93
2022/12/20 05:05:45;;;;;;;13.27;11.10;;;7.70;93.10;;;;;;4998610;28;20174;-92
2022/12/20 05:08:11;;;;;;;11.63;10.23;;;7.70;93.20;;;;;;4998862;28;20183;-93
2022/12/20 05:10:37;;;;;;;10.83;9.70;;;7.70;93.30;;;;;;4998785;28;20185;-92
2022/12/20 05:13:03;;;;;;;13.97;11.00;;;7.70;93.40;;;;;;4998938;28;20189;-94
2022/12/20 05:15:29;;;;;;;11.33;10.00;;;7.70;93.30;;;;;;4999465;28;20186;-93
2022/12/20 05:17:58;;;;;;;14.30;11.47;;;7.70;93.50;;;;;;4998429;28;20194;-93
2022/12/20 05:20:25;;;;;;;12.77;11.17;;;7.70;93.50;;;;;;4998550;28;20209;-92
2022/12/20 05:28:23;;;;;;;18.20;12.00;;;7.60;93.70;;;;;;4999407;28;20189;-94
2022/12/20 05:30:49;;;;;;;12.70;9.83;;;7.60;93.70;;;;;;4996945;28;20171;-93
2022/12/20 05:33:14;;;;;;;14.27;11.10;;;7.60;93.80;;;;;;4998698;28;20159;-93
2022/12/20 05:35:40;;;;;;;14.17;10.90;;;7.70;93.70;;;;;;4998153;28;20197;-93
2022/12/20 05:38:06;;;;;;;16.17;11.37;;;7.70;93.70;;;;;;4997438;28;20190;-93
2022/12/20 05:40:32;;;;;;;13.20;9.83;;;7.60;93.70;;;;;;4997216;28;20183;-93
2022/12/20 05:42:57;;;;;;;12.43;9.63;;;7.60;93.80;;;;;;4995719;28;20214;-92
2022/12/20 05:45:23;;;;;;;12.77;10.20;;;7.70;93.70;;;;;;4995534;28;20174;-92
2022/12/20 05:47:48;;;;;;;11.57;10.37;;;7.70;93.80;;;;;;4996199;28;20198;-93
2022/12/20 05:50:16;;;;;;;16.10;11.13;;;7.70;93.70;;;;;;4996763;28;20184;-94
2022/12/20 05:52:42;;;;;;;13.00;11.20;;;7.80;93.90;;;;;;4997834;28;20186;-92
2022/12/20 05:55:08;;;;;;;13.53;11.00;;;7.80;93.70;;;;;;4996899;28;20238;-93
2022/12/20 05:57:33;;;;;;;14.30;11.10;;;7.80;93.70;;;;;;4997501;28;20222;-92
2022/12/20 05:59:59;;;;;;;11.10;9.63;;;7.80;93.70;;;;;;4997075;28;20187;-92
2022/12/20 06:02:25;;;;;;;16.47;10.93;;;7.90;93.70;;;;;;4995333;28;20209;-93
2022/12/20 06:04:50;;;;;;;12.30;11.03;;;7.80;93.80;;;;;;4995514;28;20162;-93
2022/12/20 06:07:16;;;;;;;13.47;11.83;;;7.80;93.70;;;;;;4995609;28;20170;-93
2022/12/20 06:09:41;;;;;;;16.90;12.40;;;7.70;93.70;;;;;;4998297;28;20186;-93
2022/12/20 06:12:07;;;;;;;16.87;11.37;;;7.70;93.80;;;;;;4997858;28;20167;-92
2022/12/20 06:14:33;;;;;;;13.70;12.30;;;7.70;93.90;;;;;;4998101;28;20191;-92
2022/12/20 06:16:58;;;;;;;16.60;12.40;;;7.70;94.00;;;;;;4996799;28;20174;-93
2022/12/20 06:19:24;;;;;;;16.57;12.07;;;7.70;94.20;;;;;;4997472;28;20198;-93
2022/12/20 06:21:50;;;;;;;14.33;11.53;;;7.70;94.10;;;;;;4997064;28;20187;-93
2022/12/20 06:24:15;;;;;;;14.47;11.83;;;7.80;94.10;;;;;;4995797;28;20245;-93
2022/12/20 06:26:41;;;;;;;13.20;11.77;;;7.80;94.10;;;;;;4995686;28;20163;-93
2022/12/20 06:29:08;;;;;;;14.00;10.87;;;7.80;94.10;;;;;;4996667;28;20198;-92
2022/12/20 06:31:33;;;;;;;13.87;11.60;;;7.80;94.10;;;;;;4996980;28;20249;-93
2022/12/20 06:33:59;;;;;;;15.23;10.90;;;7.90;94.10;;;;;;4997403;28;20166;-95
2022/12/20 06:36:25;;;;;;;13.60;10.57;;;7.90;94.10;;;;;;4997914;28;20171;-93
2022/12/20 06:38:51;;;;;;;12.43;11.20;;;7.90;94.10;;;;;;4997291;28;20210;-93
2022/12/20 06:41:17;;;;;;;13.40;10.73;;;7.90;94.20;;;;;;4998800;28;20217;-93
2022/12/20 06:43:43;;;;;;;9.93;8.90;;;7.90;94.20;;;;;;4997842;28;20206;-91
2022/12/20 06:46:08;;;;;;;10.03;9.03;;;8.00;94.40;;;;;;4998417;28;20194;-93
2022/12/20 06:48:34;;;;;;;12.87;11.47;;;8.00;94.30;;;;;;4999054;28;20258;-92
2022/12/20 06:51:00;;;;;;;10.47;9.37;;;7.90;94.30;;;;;;5002591;28;20166;-93
2022/12/20 06:53:25;;;;;;;15.50;11.40;;;8.00;94.40;;;;;;5002386;28;20185;-93
2022/12/20 06:55:51;;;;;;;12.07;10.90;;;8.10;94.40;;;;;;5002143;28;20175;-93
2022/12/20 06:58:18;;;;;;;11.77;10.50;;;8.10;94.40;;;;;;5002272;28;20198;-93
2022/12/20 07:00:43;;;;;;;12.97;10.17;;;8.10;94.40;;;;;;5002052;28;20158;-92
2022/12/20 07:03:09;;;;;;;13.37;11.97;;;8.20;94.40;;;;;;5001619;28;20232;-92
2022/12/20 07:05:35;;;;;;;15.73;9.30;;;8.20;94.30;;;;;;5002269;28;20179;-94
2022/12/20 07:08:03;;;;;;;12.90;10.23;;;8.20;94.30;;;;;;5001288;28;20193;-93
2022/12/20 07:10:29;;;;;;;16.23;11.57;;;8.30;94.30;;;;;;5001012;28;20181;-94
2022/12/20 07:12:58;;;;;;;11.87;10.77;;;8.30;94.30;;;;;;5000804;28;20213;-93
2022/12/20 07:15:23;;;;;;;13.37;11.67;;;8.30;94.20;;;;;;5000324;28;20246;-93
2022/12/20 07:17:50;;;;;;;16.90;11.87;;;8.30;94.20;;;;;;5001429;28;20194;-92
2022/12/20 07:20:16;;;;;;;13.10;11.70;;;8.30;94.20;;;;;;5001167;28;20179;-92
2022/12/20 07:22:42;;;;;;;15.50;12.37;;;8.30;94.30;;;;;;5001012;28;20217;-93
2022/12/20 07:25:08;;;;;;;16.07;11.97;;;8.30;94.20;;;;;;5000004;28;20179;-93
2022/12/20 07:27:33;;;;;;;14.47;10.97;;;8.20;94.30;;;;;;4998755;28;20265;-92
2022/12/20 07:29:59;;;;;;;12.53;11.23;;;8.20;94.40;;;;;;4987777;28;20285;-92
2022/12/20 07:32:24;;;;;;;14.70;11.83;;;8.20;94.30;;;;;;5001767;28;20197;-92
2022/12/20 07:34:50;;;;;;;12.73;11.53;;;8.20;94.50;;;;;;4991515;28;20187;-92
2022/12/20 07:37:17;;;;;;;13.63;12.33;;;8.10;94.50;;;;;;4986173;28;20190;-91
2022/12/20 07:39:42;;;;;;;23.80;14.73;;;8.20;94.70;;;;;;4996067;28;20166;-91
2022/12/20 07:42:08;;;;;;;14.20;12.57;;;8.10;94.70;;;;;;4996161;28;20278;-93
2022/12/20 07:44:34;;;;;;;15.60;14.00;;;8.20;94.70;;;;;;4995059;28;20178;-93
2022/12/20 07:46:59;;;;;;;15.60;13.90;;;8.10;94.60;;;;;;4990344;28;20189;-91
2022/12/20 07:49:25;;;;;;;14.77;13.13;;;8.10;94.70;;;;;;4989277;28;20210;-92
2022/12/20 07:57:05;;;;;;;14.87;13.27;;;8.20;94.80;;;;;;4372048;26;20275;-93
2022/12/20 07:59:38;;;;;;;17.63;14.13;;;8.20;94.80;;;;;;5012593;28;20233;-93
2022/12/20 08:02:05;;;;;;;14.27;11.20;;;8.20;94.70;;;;;;5012607;28;20224;-92
2022/12/20 08:04:32;;;;;;;14.33;11.40;;;8.10;94.70;;;;;;5009163;28;20172;-93
2022/12/20 08:07:00;;;;;;;14.37;12.13;;;8.20;94.70;;;;;;5010560;28;20527;-93
2022/12/20 08:09:29;;;;;;;12.57;11.27;;;8.20;94.70;;;;;;5010358;28;20340;-93
2022/12/20 08:11:56;;;;;;;16.40;12.37;;;8.20;94.70;;;;;;5012564;28;20209;-93
2022/12/20 08:14:22;;;;;;;14.70;13.20;;;8.20;94.70;;;;;;5011052;28;20182;-93
2022/12/20 08:16:48;;;;;;;17.97;13.40;;;8.20;94.70;;;;;;5012764;28;20203;-93
2022/12/20 08:19:13;;;;;;;17.60;13.07;;;8.30;94.60;;;;;;5013961;28;20197;-93
2022/12/20 08:21:39;;;;;;;13.80;11.77;;;8.30;94.60;;;;;;5011316;28;20212;-92
2022/12/20 08:24:05;;;;;;;18.87;12.67;;;8.20;94.50;;;;;;5007320;28;20201;-94
2022/12/20 08:26:30;;;;;;;14.00;12.53;;;8.20;94.50;;;;;;5008171;28;20193;-93
2022/12/20 08:28:56;;;;;;;16.70;13.57;;;8.30;94.50;;;;;;5009455;28;20197;-92
2022/12/20 08:31:22;;;;;;;16.50;12.80;;;8.30;94.40;;;;;;5007168;28;20181;-92
2022/12/20 08:33:48;;;;;;;15.17;10.63;;;8.30;94.30;;;;;;5010363;28;20188;-93
2022/12/20 08:36:14;;;;;;;12.47;10.77;;;8.50;94.30;;;;;;5009067;28;20188;-93
2022/12/20 08:38:39;;;;;;;14.90;11.33;;;8.50;94.00;;;;;;5011341;28;20209;-93
2022/12/20 08:41:11;;;;;;;11.37;10.27;;;8.50;93.80;;;;;;5012561;28;20186;-93
2022/12/20 08:43:38;;;;;;;14.53;12.83;;;8.60;93.50;;;;;;5008888;28;20224;-93
2022/12/20 08:46:05;;;;;;;12.13;9.60;;;8.60;93.60;;;;;;5015185;28;20178;-93
2022/12/20 08:48:32;;;;;;;16.80;10.77;;;8.60;93.60;;;;;;5016052;28;20223;-93
2022/12/20 08:51:03;;;;;;;11.57;9.47;;;8.80;93.30;;;;;;5014712;28;20178;-93
2022/12/20 08:53:30;;;;;;;11.43;10.30;;;8.80;93.10;;;;;;5013377;28;20186;-93
2022/12/20 08:56:06;;;;;;;11.60;8.93;;;8.80;93.00;;;;;;5010847;28;20563;-93
2022/12/20 08:58:32;;;;;;;11.67;10.47;;;8.80;92.90;;;;;;5015907;28;20273;-93
2022/12/20 09:00:59;;;;;;;14.07;11.00;;;8.90;92.70;;;;;;5018050;28;20220;-93
2022/12/20 09:03:25;;;;;;;9.27;8.37;;;8.90;92.80;;;;;;5016903;28;20227;-93
2022/12/20 09:05:51;;;;;;;15.47;10.73;;;8.90;92.60;;;;;;5015900;28;20637;-93
2022/12/20 09:08:16;;;;;;;10.80;9.70;;;8.90;92.60;;;;;;5005314;28;20255;-91
2022/12/20 09:10:42;;;;;;;11.27;9.37;;;8.80;92.50;;;;;;5006099;28;20188;-92
2022/12/20 09:13:09;;;;;;;9.10;8.30;;;8.90;92.60;;;;;;5017722;28;20190;-93
2022/12/20 09:15:35;;;;;;;12.13;10.80;;;8.90;92.50;;;;;;5014576;28;20188;-93
2022/12/20 09:18:02;;;;;;;12.53;9.67;;;8.90;92.60;;;;;;5015842;28;20182;-92
2022/12/20 09:20:28;;;;;;;12.03;10.73;;;8.90;92.40;;;;;;5020989;28;20173;-94
2022/12/20 09:22:53;;;;;;;11.13;10.03;;;9.00;92.30;;;;;;5022418;28;20201;-93
2022/12/20 09:25:19;;;;;;;10.70;8.60;;;8.90;92.30;;;;;;5022089;28;20162;-94
2022/12/20 09:27:45;;;;;;;11.57;10.57;;;8.90;92.40;;;;;;5022343;28;20245;-94
2022/12/20 09:30:11;;;;;;;11.03;9.90;;;9.00;92.30;;;;;;5022621;28;20154;-94
2022/12/20 09:32:37;;;;;;;11.43;9.70;;;9.00;92.20;;;;;;5022455;28;20166;-93
2022/12/20 09:35:03;;;;;;;14.03;11.43;;;9.10;92.10;;;;;;5022593;28;20234;-95
2022/12/20 09:37:31;;;;;;;8.97;7.97;;;9.10;92.00;;;;;;5022455;28;20150;-96
2022/12/20 09:39:57;;;;;;;11.70;10.47;;;9.00;92.50;;;;;;5022566;28;20169;-95
2022/12/20 09:42:26;;;;;;;11.30;10.10;;;9.10;92.60;;;;;;5022328;28;20180;-94
2022/12/20 09:44:56;;;;;;;11.00;9.90;;;9.00;93.10;;;;;;5022176;28;20188;-95
2022/12/20 09:47:24;;;;;;;11.43;9.67;;;9.00;93.60;;;;;;5021844;28;20225;-93
2022/12/20 09:49:55;;;;;;;10.70;9.50;;;8.90;93.80;;;;;;5021955;28;20173;-93
2022/12/20 09:52:29;;;;;;;15.97;12.77;;;8.90;94.10;;;;;;5021837;28;20173;-94
2022/12/20 09:55:01;;;;;;;13.27;10.67;;;9.00;94.30;;;;;;5022168;28;20188;-93
2022/12/20 09:57:46;;;;;;;17.40;12.47;;;8.90;94.40;;;;;;5022110;28;20237;-96
2022/12/20 10:00:18;;;;;;;12.83;10.53;;;8.90;94.50;;;;;;5021905;28;20184;-94
2022/12/20 10:02:44;;;;;;;19.70;12.20;;;8.90;94.60;;;;;;5021704;28;20212;-95
2022/12/20 10:05:24;;;;;;;13.30;10.83;;;8.90;94.50;;;;;;5022041;28;20196;-94
2022/12/20 10:08:00;;;;;;;14.83;9.87;;;8.90;94.50;;;;;;5021756;28;20205;-94
2022/12/20 10:10:49;;;;;;;16.23;11.83;;;9.00;94.70;;;;;;5021734;28;20192;-95
2022/12/20 10:13:22;;;;;;;15.10;12.77;;;9.00;94.70;;;;;;5021694;28;20161;-94
2022/12/20 10:16:18;;;;;;;13.53;12.13;;;9.00;94.80;;;;;;5021528;28;20157;-94
2022/12/20 10:18:57;;;;;;;13.13;11.17;;;9.00;94.80;;;;;;5021615;28;20211;-94
2022/12/20 10:21:33;;;;;;;15.03;13.50;;;9.00;94.70;;;;;;5021225;28;20173;-93
2022/12/20 10:24:04;;;;;;;17.33;13.37;;;9.00;94.70;;;;;;5019809;28;20201;-93
2022/12/20 10:26:32;;;;;;;18.63;13.70;;;9.00;94.60;;;;;;5020058;28;20237;-93
2022/12/20 10:28:57;;;;;;;16.00;13.93;;;9.00;94.60;;;;;;5021687;28;20212;-92
2022/12/20 10:31:24;;;;;;;17.67;14.40;;;9.00;94.60;;;;;;5021691;28;20165;-96
2022/12/20 10:33:49;;;;;;;16.43;14.23;;;9.00;94.60;;;;;;5021541;28;20257;-96
2022/12/20 10:36:24;;;;;;;16.07;14.03;;;9.10;94.60;;;;;;5021423;28;20169;-95
2022/12/20 10:38:52;;;;;;;16.67;14.70;;;9.20;94.60;;;;;;5021657;28;20189;-94
2022/12/20 10:41:22;;;;;;;16.50;14.73;;;9.10;94.50;;;;;;5021312;28;20165;-96
2022/12/20 10:43:57;;;;;;;21.13;14.70;;;9.20;94.60;;;;;;5021724;28;20196;-94
2022/12/20 10:46:33;;;;;;;15.60;13.97;;;9.20;94.60;;;;;;5021372;28;20169;-95
2022/12/20 10:49:20;;;;;;;18.67;14.93;;;9.30;94.60;;;;;;5021565;28;20268;-95
2022/12/20 10:51:54;;;;;;;18.03;14.20;;;9.40;94.40;;;;;;5021266;28;20157;-94
2022/12/20 10:54:29;;;;;;;13.33;11.57;;;9.50;94.20;;;;;;5021081;28;20154;-94
2022/12/20 10:56:57;;;;;;;11.53;10.53;;;9.50;93.80;;;;;;5021437;28;20195;-95
2022/12/20 10:59:26;;;;;;;15.60;13.03;;;9.60;93.30;;;;;;5021167;28;20227;-94
2022/12/20 11:01:52;;;;;;;12.03;10.93;;;9.70;92.70;;;;;;5020792;28;20196;-93
2022/12/20 11:04:25;;;;;;;14.57;13.07;;;9.70;92.40;;;;;;5004712;28;20404;-93
2022/12/20 11:06:51;;;;;;;12.67;11.47;;;9.80;91.80;;;;;;5005740;28;20196;-93
2022/12/20 11:09:22;;;;;;;15.23;11.10;;;9.80;91.30;;;;;;5010208;28;20182;-93
2022/12/20 11:12:15;;;;;;;14.80;11.03;;;9.80;91.20;;;;;;5019660;28;20203;-93
2022/12/20 11:14:44;;;;;;;10.03;9.13;;;9.80;91.00;;;;;;5015308;28;20189;-93
2022/12/20 11:17:31;;;;;;;10.63;9.63;;;9.80;91.00;;;;;;5017612;28;20206;-92
2022/12/20 11:20:12;;;;;;;11.43;10.33;;;9.70;90.80;;;;;;5008497;28;20177;-93
2022/12/20 11:23:01;;;;;;;10.13;9.23;;;9.70;90.60;;;;;;5013211;28;20193;-92
2022/12/20 11:25:30;;;;;;;11.47;10.17;;;9.60;90.50;;;;;;5006993;28;20157;-93
2022/12/20 11:28:26;;;;;;;11.60;10.40;;;9.70;90.40;;;;;;5016895;28;20200;-94
2022/12/20 11:30:54;;;;;;;9.13;8.37;;;9.70;90.20;;;;;;5005969;28;20166;-92
2022/12/20 11:33:32;;;;;;;12.33;10.03;;;9.70;90.00;;;;;;5015337;28;20216;-93
2022/12/20 11:36:10;;;;;;;10.70;9.47;;;9.70;89.80;;;;;;5021250;28;20217;-93
2022/12/20 11:39:07;;;;;;;10.80;9.70;;;9.70;90.00;;;;;;5023011;28;20208;-92
2022/12/20 11:41:51;;;;;;;14.97;10.50;;;9.70;89.90;;;;;;5011147;28;20260;-93
2022/12/20 11:44:23;;;;;;;9.93;8.83;;;9.70;89.80;;;;;;5000274;28;20201;-92
2022/12/20 11:46:52;;;;;;;10.03;9.23;;;9.80;89.50;;;;;;5000166;28;20173;-92
2022/12/20 11:49:39;;;;;;;10.20;9.20;;;9.70;89.50;;;;;;5001906;28;20198;-92
2022/12/20 11:52:18;;;;;;;9.80;8.80;;;9.70;89.60;;;;;;5003240;28;20169;-93
2022/12/20 11:54:48;;;;;;;10.30;9.20;;;9.70;89.50;;;;;;5004789;28;20205;-92
2022/12/20 11:57:27;;;;;;;11.00;7.83;;;9.70;89.50;;;;;;5001436;28;20506;-92
2022/12/20 11:59:57;;;;;;;9.30;8.40;;;9.70;89.40;;;;;;5005504;28;20169;-92
2022/12/20 12:02:53;;;;;;;10.17;9.10;;;9.80;89.20;;;;;;5003376;28;20662;-93
2022/12/20 12:05:36;;;;;;;8.07;7.37;;;9.70;89.30;;;;;;5011886;28;20193;-92
2022/12/20 12:08:12;;;;;;;10.43;9.37;;;9.80;88.90;;;;;;5011154;28;20193;-92
2022/12/20 12:10:42;;;;;;;10.50;8.63;;;9.80;88.50;;;;;;5008695;28;20172;-92
2022/12/20 12:13:22;;;;;;;10.67;8.57;;;9.80;89.00;;;;;;5012845;28;20522;-92
2022/12/20 12:15:59;;;;;;;11.47;9.07;;;9.80;88.90;;;;;;5008407;28;20236;-92
2022/12/20 12:18:31;;;;;;;11.30;9.17;;;9.70;89.40;;;;;;5008807;28;20204;-92
2022/12/20 12:21:16;;;;;;;10.23;9.23;;;9.70;89.50;;;;;;5005680;28;20723;-91
2022/12/20 12:23:57;;;;;;;9.37;8.43;;;9.60;89.70;;;;;;5004835;28;20258;-92
2022/12/20 12:26:29;;;;;;;8.83;8.03;;;9.50;90.20;;;;;;5014572;28;20181;-93
2022/12/20 12:29:09;;;;;;;10.97;9.63;;;9.60;89.90;;;;;;5011398;28;20217;-92
2022/12/20 12:31:44;;;;;;;7.63;6.90;;;9.50;90.20;;;;;;5009428;28;20189;-93
2022/12/20 12:34:37;;;;;;;12.13;7.57;;;9.40;90.30;;;;;;5009042;28;20190;-92
2022/12/20 12:37:09;;;;;;;8.13;7.33;;;9.50;90.10;;;;;;5016528;28;20192;-92
2022/12/20 12:39:55;;;;;;;11.50;10.50;;;9.50;90.30;;;;;;5015372;28;20206;-92
2022/12/20 12:42:27;;;;;;;13.33;10.50;;;9.50;90.40;;;;;;5013106;28;20177;-93
2022/12/20 12:45:00;;;;;;;12.60;11.50;;;9.40;90.60;;;;;;5008878;28;20181;-92
2022/12/20 12:47:44;;;;;;;9.53;8.70;;;9.40;90.70;;;;;;5013833;28;20197;-92
2022/12/20 12:50:29;;;;;;;12.30;10.83;;;9.40;90.80;;;;;;5021910;28;20651;-91
2022/12/20 12:52:57;;;;;;;11.30;10.30;;;9.40;91.00;;;;;;4999663;28;20177;-89
2022/12/20 12:55:39;;;;;;;13.00;11.73;;;9.30;91.10;;;;;;5003646;28;20215;-92
2022/12/20 12:58:26;;;;;;;12.60;10.80;;;9.30;91.30;;;;;;5010793;28;20651;-92
2022/12/20 13:00:57;;;;;;;10.47;9.03;;;9.30;91.40;;;;;;5018031;28;20188;-94
2022/12/20 13:03:53;;;;;;;14.20;10.83;;;9.30;91.60;;;;;;5021442;28;20216;-94
2022/12/20 13:06:25;;;;;;;12.57;11.20;;;9.30;91.60;;;;;;5021537;28;20173;-92
2022/12/20 13:08:57;;;;;;;12.80;11.60;;;9.30;91.90;;;;;;5021204;28;20245;-95
2022/12/20 13:11:40;;;;;;;13.97;12.53;;;9.20;92.10;;;;;;5019127;28;20243;-94
2022/12/20 13:14:24;;;;;;;13.70;12.40;;;9.30;92.00;;;;;;5019777;28;20180;-95